sensor_id;sensor_type;location;lat;lon;timestamp;P1;durP1;ratioP1;P2;durP2;ratioP2
31974;SDS011;18500;43.618;1.474;2022-07-06T07:11:41;654.80;;;607.70;;
31974;SDS011;18500;43.618;1.474;2022-07-06T07:14:07;650.83;;;603.75;;
31974;SDS011;18500;43.618;1.474;2022-07-06T07:16:33;607.67;;;563.80;;
31974;SDS011;18500;43.618;1.474;2022-07-06T07:18:58;494.60;;;460.13;;
31974;SDS011;18500;43.618;1.474;2022-07-06T07:21:24;589.85;;;547.17;;
31974;SDS011;18500;43.618;1.474;2022-07-06T07:23:50;566.50;;;525.10;;
31974;SDS011;18500;43.618;1.474;2022-07-06T07:26:16;589.40;;;546.90;;
31974;SDS011;18500;43.618;1.474;2022-07-06T07:28:42;510.02;;;473.40;;
31974;SDS011;18500;43.618;1.474;2022-07-06T07:31:07;747.35;;;690.83;;
31974;SDS011;18500;43.618;1.474;2022-07-06T07:33:33;743.70;;;688.22;;
31974;SDS011;18500;43.618;1.474;2022-07-06T07:35:59;757.45;;;700.70;;
31974;SDS011;18500;43.618;1.474;2022-07-06T07:38:25;749.25;;;692.90;;
31974;SDS011;18500;43.618;1.474;2022-07-06T07:40:53;711.53;;;656.97;;
31974;SDS011;18500;43.618;1.474;2022-07-06T07:43:19;706.03;;;655.17;;
31974;SDS011;18500;43.618;1.474;2022-07-06T07:45:45;771.53;;;711.85;;
31974;SDS011;18500;43.618;1.474;2022-07-06T07:48:12;743.00;;;689.05;;
31974;SDS011;18500;43.618;1.474;2022-07-06T07:50:38;774.92;;;716.20;;
31974;SDS011;18500;43.618;1.474;2022-07-06T07:53:03;759.60;;;703.00;;
31974;SDS011;18500;43.618;1.474;2022-07-06T07:55:29;714.38;;;661.50;;
31974;SDS011;18500;43.618;1.474;2022-07-06T07:57:54;709.38;;;656.03;;
31974;SDS011;18500;43.618;1.474;2022-07-06T08:00:20;667.72;;;618.08;;
31974;SDS011;18500;43.618;1.474;2022-07-06T08:02:46;617.97;;;570.47;;
31974;SDS011;18500;43.618;1.474;2022-07-06T08:05:12;571.10;;;526.80;;
31974;SDS011;18500;43.618;1.474;2022-07-06T08:07:40;648.03;;;598.70;;
31974;SDS011;18500;43.618;1.474;2022-07-06T08:10:07;413.85;;;382.30;;
31974;SDS011;18500;43.618;1.474;2022-07-06T08:12:33;401.33;;;370.73;;
31974;SDS011;18500;43.618;1.474;2022-07-06T08:14:58;466.67;;;431.50;;
31974;SDS011;18500;43.618;1.474;2022-07-06T08:17:24;484.88;;;447.55;;
31974;SDS011;18500;43.618;1.474;2022-07-06T08:19:50;589.55;;;544.03;;
31974;SDS011;18500;43.618;1.474;2022-07-06T08:22:15;429.83;;;397.70;;
31974;SDS011;18500;43.618;1.474;2022-07-06T08:24:41;485.08;;;448.52;;
31974;SDS011;18500;43.618;1.474;2022-07-06T08:27:06;479.48;;;441.63;;
31974;SDS011;18500;43.618;1.474;2022-07-06T08:29:32;412.65;;;382.48;;
31974;SDS011;18500;43.618;1.474;2022-07-06T08:31:58;449.27;;;416.52;;
31974;SDS011;18500;43.618;1.474;2022-07-06T08:34:24;573.85;;;530.90;;
31974;SDS011;18500;43.618;1.474;2022-07-06T08:36:49;449.67;;;417.33;;
31974;SDS011;18500;43.618;1.474;2022-07-06T08:39:15;414.15;;;385.08;;
31974;SDS011;18500;43.618;1.474;2022-07-06T08:41:42;550.33;;;507.05;;
31974;SDS011;18500;43.618;1.474;2022-07-06T08:44:12;468.17;;;434.63;;
31974;SDS011;18500;43.618;1.474;2022-07-06T08:46:41;467.65;;;432.63;;
31974;SDS011;18500;43.618;1.474;2022-07-06T08:49:07;564.25;;;521.88;;
31974;SDS011;18500;43.618;1.474;2022-07-06T08:51:36;595.67;;;551.67;;
31974;SDS011;18500;43.618;1.474;2022-07-06T08:54:03;429.48;;;398.73;;
31974;SDS011;18500;43.618;1.474;2022-07-06T08:56:29;399.50;;;371.70;;
31974;SDS011;18500;43.618;1.474;2022-07-06T08:58:55;671.88;;;622.47;;
31974;SDS011;18500;43.618;1.474;2022-07-06T09:01:21;581.95;;;539.50;;
31974;SDS011;18500;43.618;1.474;2022-07-06T09:03:48;682.97;;;633.20;;
31974;SDS011;18500;43.618;1.474;2022-07-06T09:06:16;640.22;;;592.92;;
31974;SDS011;18500;43.618;1.474;2022-07-06T09:08:44;609.95;;;563.72;;
31974;SDS011;18500;43.618;1.474;2022-07-06T09:11:11;566.05;;;521.00;;
31974;SDS011;18500;43.618;1.474;2022-07-06T09:13:37;621.10;;;573.95;;
31974;SDS011;18500;43.618;1.474;2022-07-06T09:16:13;647.28;;;600.08;;
31974;SDS011;18500;43.618;1.474;2022-07-06T09:18:39;655.17;;;607.60;;
31974;SDS011;18500;43.618;1.474;2022-07-06T09:21:09;617.22;;;570.90;;
31974;SDS011;18500;43.618;1.474;2022-07-06T09:23:35;543.45;;;503.27;;
31974;SDS011;18500;43.618;1.474;2022-07-06T09:26:02;603.10;;;557.53;;
31974;SDS011;18500;43.618;1.474;2022-07-06T09:28:40;640.72;;;594.08;;
31974;SDS011;18500;43.618;1.474;2022-07-06T09:31:06;641.72;;;595.28;;
31974;SDS011;18500;43.618;1.474;2022-07-06T09:33:32;690.92;;;640.55;;
31974;SDS011;18500;43.618;1.474;2022-07-06T09:35:59;583.80;;;540.70;;
31974;SDS011;18500;43.618;1.474;2022-07-06T09:38:27;589.75;;;546.38;;
31974;SDS011;18500;43.618;1.474;2022-07-06T09:40:52;583.10;;;540.63;;
31974;SDS011;18500;43.618;1.474;2022-07-06T09:43:22;368.85;;;343.98;;
31974;SDS011;18500;43.618;1.474;2022-07-06T09:45:49;424.40;;;395.05;;
31974;SDS011;18500;43.618;1.474;2022-07-06T09:48:17;379.65;;;355.15;;
31974;SDS011;18500;43.618;1.474;2022-07-06T09:50:46;308.85;;;288.95;;
31974;SDS011;18500;43.618;1.474;2022-07-06T09:53:14;345.90;;;322.40;;
31974;SDS011;18500;43.618;1.474;2022-07-06T09:55:44;289.27;;;270.45;;
31974;SDS011;18500;43.618;1.474;2022-07-06T09:58:10;339.20;;;317.38;;
31974;SDS011;18500;43.618;1.474;2022-07-06T10:00:36;389.10;;;363.88;;
31974;SDS011;18500;43.618;1.474;2022-07-06T10:03:03;373.58;;;349.13;;
31974;SDS011;18500;43.618;1.474;2022-07-06T10:05:30;373.75;;;348.42;;
31974;SDS011;18500;43.618;1.474;2022-07-06T10:08:00;286.75;;;268.33;;
31974;SDS011;18500;43.618;1.474;2022-07-06T10:10:27;307.45;;;288.15;;
31974;SDS011;18500;43.618;1.474;2022-07-06T10:12:57;320.60;;;299.73;;
31974;SDS011;18500;43.618;1.474;2022-07-06T10:15:27;336.60;;;314.38;;
31974;SDS011;18500;43.618;1.474;2022-07-06T10:17:57;274.50;;;257.17;;
31974;SDS011;18500;43.618;1.474;2022-07-06T10:20:24;337.30;;;314.88;;
31974;SDS011;18500;43.618;1.474;2022-07-06T10:22:53;763.58;;;699.85;;
31974;SDS011;18500;43.618;1.474;2022-07-06T10:25:22;290.30;;;271.00;;
31974;SDS011;18500;43.618;1.474;2022-07-06T10:27:49;304.40;;;283.35;;
31974;SDS011;18500;43.618;1.474;2022-07-06T10:30:16;294.13;;;273.75;;
31974;SDS011;18500;43.618;1.474;2022-07-06T10:32:43;764.95;;;698.00;;
31974;SDS011;18500;43.618;1.474;2022-07-06T10:35:10;789.22;;;720.70;;
31974;SDS011;18500;43.618;1.474;2022-07-06T10:37:37;326.35;;;304.05;;
31974;SDS011;18500;43.618;1.474;2022-07-06T10:40:04;850.58;;;778.22;;
31974;SDS011;18500;43.618;1.474;2022-07-06T10:42:49;536.13;;;497.52;;
31974;SDS011;18500;43.618;1.474;2022-07-06T10:50:35;895.17;;;819.17;;
31974;SDS011;18500;43.618;1.474;2022-07-06T10:53:12;845.25;;;775.05;;
31974;SDS011;18500;43.618;1.474;2022-07-06T10:55:40;862.42;;;789.83;;
31974;SDS011;18500;43.618;1.474;2022-07-06T10:58:08;917.20;;;839.72;;
31974;SDS011;18500;43.618;1.474;2022-07-06T11:00:51;804.85;;;737.78;;
31974;SDS011;18500;43.618;1.474;2022-07-06T11:04:04;725.63;;;663.42;;
31974;SDS011;18500;43.618;1.474;2022-07-06T11:11:15;563.55;;;518.55;;
31974;SDS011;18500;43.618;1.474;2022-07-06T11:13:53;646.33;;;598.63;;
31974;SDS011;18500;43.618;1.474;2022-07-06T11:16:21;732.85;;;677.28;;
31974;SDS011;18500;43.618;1.474;2022-07-06T11:24:15;685.85;;;630.50;;
31974;SDS011;18500;43.618;1.474;2022-07-06T11:26:43;655.17;;;603.67;;
31974;SDS011;18500;43.618;1.474;2022-07-06T11:29:11;645.42;;;594.08;;
31974;SDS011;18500;43.618;1.474;2022-07-06T11:31:41;624.22;;;572.78;;
31974;SDS011;18500;43.618;1.474;2022-07-06T11:34:09;632.03;;;583.90;;
31974;SDS011;18500;43.618;1.474;2022-07-06T11:36:35;704.65;;;650.35;;
31974;SDS011;18500;43.618;1.474;2022-07-06T11:39:03;676.90;;;622.25;;
31974;SDS011;18500;43.618;1.474;2022-07-06T11:41:30;707.25;;;646.70;;
31974;SDS011;18500;43.618;1.474;2022-07-06T11:43:56;864.53;;;783.33;;
31974;SDS011;18500;43.618;1.474;2022-07-06T11:46:31;915.55;;;835.90;;
31974;SDS011;18500;43.618;1.474;2022-07-06T11:49:03;762.00;;;698.08;;
31974;SDS011;18500;43.618;1.474;2022-07-06T11:51:36;900.67;;;810.95;;
31974;SDS011;18500;43.618;1.474;2022-07-06T11:54:11;684.58;;;628.92;;
31974;SDS011;18500;43.618;1.474;2022-07-06T11:56:37;720.50;;;661.67;;
31974;SDS011;18500;43.618;1.474;2022-07-06T11:59:10;753.42;;;689.03;;
31974;SDS011;18500;43.618;1.474;2022-07-06T12:01:35;790.30;;;721.40;;
31974;SDS011;18500;43.618;1.474;2022-07-06T12:04:06;840.10;;;769.75;;
31974;SDS011;18500;43.618;1.474;2022-07-06T12:06:32;846.05;;;774.13;;
31974;SDS011;18500;43.618;1.474;2022-07-06T12:08:59;765.75;;;703.78;;
31974;SDS011;18500;43.618;1.474;2022-07-06T12:11:29;832.03;;;763.33;;
31974;SDS011;18500;43.618;1.474;2022-07-06T12:14:00;722.55;;;666.10;;
31974;SDS011;18500;43.618;1.474;2022-07-06T12:16:43;963.80;;;870.70;;
31974;SDS011;18500;43.618;1.474;2022-07-06T12:19:09;708.50;;;651.63;;
31974;SDS011;18500;43.618;1.474;2022-07-06T12:21:42;952.42;;;863.63;;
31974;SDS011;18500;43.618;1.474;2022-07-06T12:24:08;842.35;;;769.63;;
31974;SDS011;18500;43.618;1.474;2022-07-06T12:26:40;751.70;;;692.67;;
31974;SDS011;18500;43.618;1.474;2022-07-06T12:29:10;805.67;;;739.15;;
31974;SDS011;18500;43.618;1.474;2022-07-06T12:31:44;834.83;;;760.75;;
31974;SDS011;18500;43.618;1.474;2022-07-06T12:34:13;899.10;;;817.08;;
31974;SDS011;18500;43.618;1.474;2022-07-06T12:36:46;946.15;;;857.45;;
31974;SDS011;18500;43.618;1.474;2022-07-06T12:39:12;1026.97;;;935.58;;
31974;SDS011;18500;43.618;1.474;2022-07-06T12:41:44;1043.72;;;949.22;;
31974;SDS011;18500;43.618;1.474;2022-07-06T12:44:16;1070.20;;;973.38;;
31974;SDS011;18500;43.618;1.474;2022-07-06T12:46:50;833.83;;;770.60;;
31974;SDS011;18500;43.618;1.474;2022-07-06T12:49:26;873.55;;;807.67;;
31974;SDS011;18500;43.618;1.474;2022-07-06T12:54:44;859.60;;;795.92;;
31974;SDS011;18500;43.618;1.474;2022-07-06T12:57:13;920.92;;;850.13;;
31974;SDS011;18500;43.618;1.474;2022-07-06T12:59:56;821.75;;;763.67;;
31974;SDS011;18500;43.618;1.474;2022-07-06T13:04:59;848.33;;;787.75;;
31974;SDS011;18500;43.618;1.474;2022-07-06T13:07:33;890.67;;;825.00;;
31974;SDS011;18500;43.618;1.474;2022-07-06T13:10:03;927.63;;;857.58;;
31974;SDS011;18500;43.618;1.474;2022-07-06T13:12:31;899.30;;;832.53;;
31974;SDS011;18500;43.618;1.474;2022-07-06T13:14:57;879.22;;;815.17;;
31974;SDS011;18500;43.618;1.474;2022-07-06T13:17:23;908.88;;;840.42;;
31974;SDS011;18500;43.618;1.474;2022-07-06T13:19:49;938.50;;;866.40;;
31974;SDS011;18500;43.618;1.474;2022-07-06T13:22:14;844.85;;;783.83;;
31974;SDS011;18500;43.618;1.474;2022-07-06T13:24:40;943.83;;;871.88;;
31974;SDS011;18500;43.618;1.474;2022-07-06T13:27:06;898.75;;;831.35;;
31974;SDS011;18500;43.618;1.474;2022-07-06T13:29:33;812.78;;;756.58;;
31974;SDS011;18500;43.618;1.474;2022-07-06T13:31:58;931.17;;;861.20;;
31974;SDS011;18500;43.618;1.474;2022-07-06T13:34:24;778.22;;;724.42;;
31974;SDS011;18500;43.618;1.474;2022-07-06T13:36:50;851.72;;;791.35;;
31974;SDS011;18500;43.618;1.474;2022-07-06T13:39:17;832.13;;;772.65;;
31974;SDS011;18500;43.618;1.474;2022-07-06T13:41:43;724.13;;;675.03;;
31974;SDS011;18500;43.618;1.474;2022-07-06T13:44:09;688.50;;;641.30;;
31974;SDS011;18500;43.618;1.474;2022-07-06T13:46:37;796.45;;;739.83;;
31974;SDS011;18500;43.618;1.474;2022-07-06T13:49:04;892.42;;;826.65;;
31974;SDS011;18500;43.618;1.474;2022-07-06T13:51:30;861.03;;;798.05;;
31974;SDS011;18500;43.618;1.474;2022-07-06T13:53:57;903.53;;;836.58;;
31974;SDS011;18500;43.618;1.474;2022-07-06T13:56:24;930.15;;;861.20;;
31974;SDS011;18500;43.618;1.474;2022-07-06T13:58:50;904.53;;;837.20;;
31974;SDS011;18500;43.618;1.474;2022-07-06T14:01:16;922.08;;;852.67;;
31974;SDS011;18500;43.618;1.474;2022-07-06T14:03:42;919.03;;;848.03;;
31974;SDS011;18500;43.618;1.474;2022-07-06T14:06:07;842.20;;;779.65;;
31974;SDS011;18500;43.618;1.474;2022-07-06T14:08:37;919.35;;;849.50;;
31974;SDS011;18500;43.618;1.474;2022-07-06T14:11:04;887.28;;;820.30;;
31974;SDS011;18500;43.618;1.474;2022-07-06T14:13:32;937.58;;;864.58;;
31974;SDS011;18500;43.618;1.474;2022-07-06T14:15:58;783.50;;;725.33;;
31974;SDS011;18500;43.618;1.474;2022-07-06T14:18:24;928.97;;;857.00;;
31974;SDS011;18500;43.618;1.474;2022-07-06T14:20:50;933.75;;;860.88;;
31974;SDS011;18500;43.618;1.474;2022-07-06T14:23:16;811.72;;;751.22;;
31974;SDS011;18500;43.618;1.474;2022-07-06T14:25:42;825.63;;;764.83;;
31974;SDS011;18500;43.618;1.474;2022-07-06T14:28:09;938.15;;;864.55;;
31974;SDS011;18500;43.618;1.474;2022-07-06T14:30:37;882.20;;;815.53;;
31974;SDS011;18500;43.618;1.474;2022-07-06T14:33:03;930.83;;;858.47;;
31974;SDS011;18500;43.618;1.474;2022-07-06T14:35:32;761.42;;;704.60;;
31974;SDS011;18500;43.618;1.474;2022-07-06T14:38:03;858.90;;;795.77;;
31974;SDS011;18500;43.618;1.474;2022-07-06T14:40:29;675.55;;;629.60;;
31974;SDS011;18500;43.618;1.474;2022-07-06T14:42:55;833.17;;;772.05;;
31974;SDS011;18500;43.618;1.474;2022-07-06T14:45:21;661.28;;;615.95;;
31974;SDS011;18500;43.618;1.474;2022-07-06T14:47:47;807.95;;;748.38;;
31974;SDS011;18500;43.618;1.474;2022-07-06T14:50:13;711.58;;;662.22;;
31974;SDS011;18500;43.618;1.474;2022-07-06T14:52:38;695.13;;;647.60;;
31974;SDS011;18500;43.618;1.474;2022-07-06T14:55:04;849.92;;;786.20;;
31974;SDS011;18500;43.618;1.474;2022-07-06T14:57:30;723.38;;;672.75;;
31974;SDS011;18500;43.618;1.474;2022-07-06T14:59:55;694.05;;;646.60;;
31974;SDS011;18500;43.618;1.474;2022-07-06T15:02:21;714.13;;;665.10;;
31974;SDS011;18500;43.618;1.474;2022-07-06T15:04:47;844.60;;;783.42;;
31974;SDS011;18500;43.618;1.474;2022-07-06T15:07:12;826.75;;;762.58;;
31974;SDS011;18500;43.618;1.474;2022-07-06T15:09:38;865.22;;;799.63;;
31974;SDS011;18500;43.618;1.474;2022-07-06T15:12:04;908.30;;;837.88;;
31974;SDS011;18500;43.618;1.474;2022-07-06T15:14:30;931.92;;;858.20;;
31974;SDS011;18500;43.618;1.474;2022-07-06T15:16:56;886.10;;;819.20;;
31974;SDS011;18500;43.618;1.474;2022-07-06T15:19:23;872.15;;;801.72;;
31974;SDS011;18500;43.618;1.474;2022-07-06T15:21:49;880.55;;;814.97;;
31974;SDS011;18500;43.618;1.474;2022-07-06T15:24:14;918.45;;;845.83;;
31974;SDS011;18500;43.618;1.474;2022-07-06T15:26:40;970.20;;;889.95;;
31974;SDS011;18500;43.618;1.474;2022-07-06T15:29:06;949.47;;;869.17;;
31974;SDS011;18500;43.618;1.474;2022-07-06T15:31:31;957.65;;;878.33;;
31974;SDS011;18500;43.618;1.474;2022-07-06T15:33:57;932.00;;;854.33;;
31974;SDS011;18500;43.618;1.474;2022-07-06T15:36:24;849.83;;;784.65;;
31974;SDS011;18500;43.618;1.474;2022-07-06T15:38:50;856.90;;;787.90;;
31974;SDS011;18500;43.618;1.474;2022-07-06T15:41:16;870.97;;;803.95;;
31974;SDS011;18500;43.618;1.474;2022-07-06T15:43:41;928.03;;;853.42;;
31974;SDS011;18500;43.618;1.474;2022-07-06T15:46:07;925.83;;;851.17;;
31974;SDS011;18500;43.618;1.474;2022-07-06T15:48:33;895.72;;;825.15;;
31974;SDS011;18500;43.618;1.474;2022-07-06T15:50:59;835.00;;;772.33;;
31974;SDS011;18500;43.618;1.474;2022-07-06T15:53:25;866.20;;;799.90;;
31974;SDS011;18500;43.618;1.474;2022-07-06T15:55:51;792.47;;;733.28;;
31974;SDS011;18500;43.618;1.474;2022-07-06T15:58:17;755.45;;;699.72;;
31974;SDS011;18500;43.618;1.474;2022-07-06T16:00:43;872.35;;;804.33;;
31974;SDS011;18500;43.618;1.474;2022-07-06T16:03:09;810.47;;;748.53;;
31974;SDS011;18500;43.618;1.474;2022-07-06T16:05:35;858.42;;;791.83;;
31974;SDS011;18500;43.618;1.474;2022-07-06T16:08:01;803.97;;;743.00;;
31974;SDS011;18500;43.618;1.474;2022-07-06T16:10:26;780.20;;;720.67;;
31974;SDS011;18500;43.618;1.474;2022-07-06T16:12:55;866.88;;;798.95;;
31974;SDS011;18500;43.618;1.474;2022-07-06T16:15:22;840.58;;;775.70;;
31974;SDS011;18500;43.618;1.474;2022-07-06T16:17:48;841.30;;;776.53;;
31974;SDS011;18500;43.618;1.474;2022-07-06T16:20:14;716.45;;;661.67;;
31974;SDS011;18500;43.618;1.474;2022-07-06T16:22:40;842.17;;;776.55;;
31974;SDS011;18500;43.618;1.474;2022-07-06T16:25:06;798.00;;;735.30;;
31974;SDS011;18500;43.618;1.474;2022-07-06T16:27:33;858.20;;;790.45;;
31974;SDS011;18500;43.618;1.474;2022-07-06T16:29:59;693.88;;;641.45;;
31974;SDS011;18500;43.618;1.474;2022-07-06T16:32:25;794.03;;;731.83;;
31974;SDS011;18500;43.618;1.474;2022-07-06T16:34:51;827.08;;;762.78;;
31974;SDS011;18500;43.618;1.474;2022-07-06T16:37:17;719.75;;;664.13;;
31974;SDS011;18500;43.618;1.474;2022-07-06T16:39:42;719.00;;;664.25;;
31974;SDS011;18500;43.618;1.474;2022-07-06T16:42:08;798.28;;;736.25;;
31974;SDS011;18500;43.618;1.474;2022-07-06T16:44:34;648.22;;;599.00;;
31974;SDS011;18500;43.618;1.474;2022-07-06T16:46:59;616.70;;;568.90;;
31974;SDS011;18500;43.618;1.474;2022-07-06T16:49:25;617.35;;;570.42;;
31974;SDS011;18500;43.618;1.474;2022-07-06T16:51:51;768.95;;;708.72;;
31974;SDS011;18500;43.618;1.474;2022-07-06T16:54:16;806.58;;;741.67;;
31974;SDS011;18500;43.618;1.474;2022-07-06T16:56:42;748.05;;;688.97;;
31974;SDS011;18500;43.618;1.474;2022-07-06T16:59:07;587.95;;;546.45;;
31974;SDS011;18500;43.618;1.474;2022-07-06T17:01:33;637.58;;;590.13;;
31974;SDS011;18500;43.618;1.474;2022-07-06T17:03:59;647.05;;;599.05;;
31974;SDS011;18500;43.618;1.474;2022-07-06T17:06:26;656.60;;;607.67;;
31974;SDS011;18500;43.618;1.474;2022-07-06T17:08:52;676.70;;;623.53;;
31974;SDS011;18500;43.618;1.474;2022-07-06T17:11:19;767.42;;;703.25;;
31974;SDS011;18500;43.618;1.474;2022-07-06T17:13:45;656.95;;;606.47;;
31974;SDS011;18500;43.618;1.474;2022-07-06T17:16:11;671.88;;;621.83;;
31974;SDS011;18500;43.618;1.474;2022-07-06T17:18:38;868.20;;;794.70;;
31974;SDS011;18500;43.618;1.474;2022-07-06T17:21:04;757.22;;;693.75;;
31974;SDS011;18500;43.618;1.474;2022-07-06T17:23:30;806.25;;;739.67;;
31974;SDS011;18500;43.618;1.474;2022-07-06T17:25:56;753.03;;;690.20;;
31974;SDS011;18500;43.618;1.474;2022-07-06T17:28:26;864.92;;;791.70;;
31974;SDS011;18500;43.618;1.474;2022-07-06T17:30:51;743.92;;;683.20;;
31974;SDS011;18500;43.618;1.474;2022-07-06T17:33:17;791.97;;;726.10;;
31974;SDS011;18500;43.618;1.474;2022-07-06T17:35:43;793.08;;;728.78;;
31974;SDS011;18500;43.618;1.474;2022-07-06T17:38:09;774.10;;;708.22;;
31974;SDS011;18500;43.618;1.474;2022-07-06T17:40:34;838.13;;;762.97;;
31974;SDS011;18500;43.618;1.474;2022-07-06T17:43:00;858.30;;;780.58;;
31974;SDS011;18500;43.618;1.474;2022-07-06T17:45:26;804.13;;;734.42;;
31974;SDS011;18500;43.618;1.474;2022-07-06T17:47:52;916.67;;;831.38;;
31974;SDS011;18500;43.618;1.474;2022-07-06T17:50:18;867.90;;;790.95;;
31974;SDS011;18500;43.618;1.474;2022-07-06T17:52:44;839.60;;;766.60;;
31974;SDS011;18500;43.618;1.474;2022-07-06T17:55:10;812.65;;;742.72;;
31974;SDS011;18500;43.618;1.474;2022-07-06T17:57:36;865.08;;;788.33;;
31974;SDS011;18500;43.618;1.474;2022-07-06T18:00:03;764.40;;;702.45;;
31974;SDS011;18500;43.618;1.474;2022-07-06T18:02:34;762.15;;;701.67;;
31974;SDS011;18500;43.618;1.474;2022-07-06T18:05:00;746.92;;;687.05;;
31974;SDS011;18500;43.618;1.474;2022-07-06T18:07:27;716.25;;;661.60;;
31974;SDS011;18500;43.618;1.474;2022-07-06T18:09:52;775.08;;;711.92;;
31974;SDS011;18500;43.618;1.474;2022-07-06T18:12:21;715.00;;;660.42;;
31974;SDS011;18500;43.618;1.474;2022-07-06T18:14:47;693.25;;;639.75;;
31974;SDS011;18500;43.618;1.474;2022-07-06T18:17:13;688.17;;;636.13;;
31974;SDS011;18500;43.618;1.474;2022-07-06T18:19:41;687.20;;;635.13;;
31974;SDS011;18500;43.618;1.474;2022-07-06T18:22:07;668.42;;;617.47;;
31974;SDS011;18500;43.618;1.474;2022-07-06T18:24:32;668.60;;;617.35;;
31974;SDS011;18500;43.618;1.474;2022-07-06T18:26:58;680.95;;;628.92;;
31974;SDS011;18500;43.618;1.474;2022-07-06T18:29:24;672.22;;;621.20;;
31974;SDS011;18500;43.618;1.474;2022-07-06T18:31:50;682.15;;;630.83;;
31974;SDS011;18500;43.618;1.474;2022-07-06T18:34:15;678.67;;;627.72;;
31974;SDS011;18500;43.618;1.474;2022-07-06T18:36:41;710.08;;;653.88;;
31974;SDS011;18500;43.618;1.474;2022-07-06T18:39:07;700.75;;;646.70;;
31974;SDS011;18500;43.618;1.474;2022-07-06T18:41:32;689.97;;;636.00;;
31974;SDS011;18500;43.618;1.474;2022-07-06T18:43:58;711.97;;;655.28;;
31974;SDS011;18500;43.618;1.474;2022-07-06T18:46:24;755.20;;;694.10;;
31974;SDS011;18500;43.618;1.474;2022-07-06T18:48:50;748.50;;;686.80;;
31974;SDS011;18500;43.618;1.474;2022-07-06T18:51:15;719.15;;;661.67;;
31974;SDS011;18500;43.618;1.474;2022-07-06T18:53:41;739.75;;;680.92;;
31974;SDS011;18500;43.618;1.474;2022-07-06T18:56:07;760.72;;;697.70;;
31974;SDS011;18500;43.618;1.474;2022-07-06T18:58:33;807.35;;;738.40;;
31974;SDS011;18500;43.618;1.474;2022-07-06T19:00:59;821.75;;;750.00;;
31974;SDS011;18500;43.618;1.474;2022-07-06T19:03:24;793.00;;;725.85;;
31974;SDS011;18500;43.618;1.474;2022-07-06T19:05:51;831.70;;;759.25;;
31974;SDS011;18500;43.618;1.474;2022-07-06T19:08:18;804.33;;;736.90;;
31974;SDS011;18500;43.618;1.474;2022-07-06T19:10:43;842.47;;;768.92;;
31974;SDS011;18500;43.618;1.474;2022-07-06T19:13:10;824.42;;;752.80;;
31974;SDS011;18500;43.618;1.474;2022-07-06T19:15:36;958.47;;;869.13;;
31974;SDS011;18500;43.618;1.474;2022-07-06T19:18:02;919.60;;;836.42;;
31974;SDS011;18500;43.618;1.474;2022-07-06T19:20:28;927.15;;;842.38;;
31974;SDS011;18500;43.618;1.474;2022-07-06T19:22:54;892.15;;;813.13;;
31974;SDS011;18500;43.618;1.474;2022-07-06T19:25:20;952.10;;;863.88;;
31974;SDS011;18500;43.618;1.474;2022-07-06T19:27:46;1002.28;;;908.53;;
31974;SDS011;18500;43.618;1.474;2022-07-06T19:30:13;948.50;;;860.83;;
31974;SDS011;18500;43.618;1.474;2022-07-06T19:32:39;998.38;;;903.17;;
31974;SDS011;18500;43.618;1.474;2022-07-06T19:35:06;1020.78;;;922.95;;
31974;SDS011;18500;43.618;1.474;2022-07-06T19:37:32;1026.88;;;927.90;;
31974;SDS011;18500;43.618;1.474;2022-07-06T19:39:58;929.30;;;843.53;;
31974;SDS011;18500;43.618;1.474;2022-07-06T19:42:24;1031.63;;;931.92;;
31974;SDS011;18500;43.618;1.474;2022-07-06T19:44:50;1023.53;;;925.33;;
31974;SDS011;18500;43.618;1.474;2022-07-06T19:47:16;1045.78;;;945.30;;
31974;SDS011;18500;43.618;1.474;2022-07-06T19:49:42;1022.38;;;924.35;;
31974;SDS011;18500;43.618;1.474;2022-07-06T19:52:07;1015.97;;;918.47;;
31974;SDS011;18500;43.618;1.474;2022-07-06T19:54:33;1029.20;;;930.92;;
31974;SDS011;18500;43.618;1.474;2022-07-06T19:56:59;1011.42;;;916.92;;
31974;SDS011;18500;43.618;1.474;2022-07-06T19:59:25;990.47;;;900.65;;
31974;SDS011;18500;43.618;1.474;2022-07-06T20:01:51;951.33;;;867.22;;
31974;SDS011;18500;43.618;1.474;2022-07-06T20:04:17;992.20;;;899.85;;
31974;SDS011;18500;43.618;1.474;2022-07-06T20:06:42;842.60;;;773.50;;
31974;SDS011;18500;43.618;1.474;2022-07-06T20:09:08;792.10;;;728.17;;
31974;SDS011;18500;43.618;1.474;2022-07-06T20:11:34;678.13;;;622.35;;
31974;SDS011;18500;43.618;1.474;2022-07-06T20:14:01;532.38;;;493.02;;
31974;SDS011;18500;43.618;1.474;2022-07-06T20:16:27;531.45;;;491.77;;
31974;SDS011;18500;43.618;1.474;2022-07-06T20:18:53;466.08;;;432.50;;
31974;SDS011;18500;43.618;1.474;2022-07-06T20:21:20;432.33;;;400.92;;
31974;SDS011;18500;43.618;1.474;2022-07-06T20:23:46;411.85;;;382.38;;
31974;SDS011;18500;43.618;1.474;2022-07-06T20:26:11;378.92;;;352.38;;
31974;SDS011;18500;43.618;1.474;2022-07-06T20:28:37;397.65;;;368.80;;
31974;SDS011;18500;43.618;1.474;2022-07-06T20:31:06;420.00;;;390.02;;
31974;SDS011;18500;43.618;1.474;2022-07-06T20:33:32;398.92;;;370.15;;
31974;SDS011;18500;43.618;1.474;2022-07-06T20:35:58;422.65;;;391.83;;
31974;SDS011;18500;43.618;1.474;2022-07-06T20:38:24;485.83;;;450.20;;
31974;SDS011;18500;43.618;1.474;2022-07-06T20:40:50;469.50;;;434.70;;
31974;SDS011;18500;43.618;1.474;2022-07-06T20:43:16;454.05;;;420.70;;
31974;SDS011;18500;43.618;1.474;2022-07-06T20:45:43;445.45;;;412.60;;
31974;SDS011;18500;43.618;1.474;2022-07-06T20:48:09;418.08;;;387.17;;
31974;SDS011;18500;43.618;1.474;2022-07-06T20:50:34;541.65;;;502.05;;
31974;SDS011;18500;43.618;1.474;2022-07-06T20:53:00;458.13;;;425.02;;
31974;SDS011;18500;43.618;1.474;2022-07-06T20:55:27;496.80;;;460.55;;
31974;SDS011;18500;43.618;1.474;2022-07-06T20:57:53;523.88;;;485.67;;
31974;SDS011;18500;43.618;1.474;2022-07-06T21:00:19;538.13;;;498.27;;
31974;SDS011;18500;43.618;1.474;2022-07-06T21:02:45;374.08;;;346.90;;
31974;SDS011;18500;43.618;1.474;2022-07-06T21:05:11;454.50;;;421.80;;
31974;SDS011;18500;43.618;1.474;2022-07-06T21:07:36;447.92;;;415.10;;
31974;SDS011;18500;43.618;1.474;2022-07-06T21:10:02;348.38;;;322.65;;
31974;SDS011;18500;43.618;1.474;2022-07-06T21:12:28;391.02;;;362.02;;
31974;SDS011;18500;43.618;1.474;2022-07-06T21:14:54;445.00;;;412.70;;
31974;SDS011;18500;43.618;1.474;2022-07-06T21:17:20;671.17;;;618.92;;
31974;SDS011;18500;43.618;1.474;2022-07-06T21:19:45;728.78;;;669.15;;
31974;SDS011;18500;43.618;1.474;2022-07-06T21:22:11;641.30;;;594.10;;
31974;SDS011;18500;43.618;1.474;2022-07-06T21:24:37;622.50;;;576.47;;
31974;SDS011;18500;43.618;1.474;2022-07-06T21:27:02;623.42;;;575.50;;